Date,TemperatureHighF,TemperatureAvgF,TemperatureLowF,DewpointHighF,DewpointAvgF,DewpointLowF,HumidityHigh,HumidityAvg,HumidityLow,PressureMaxIn,PressureMinIn,WindSpeedMaxMPH,WindSpeedAvgMPH,GustSpeedMaxMPH,PrecipitationSumIn
2013-11-1,61.9,55.1,40.5,61.3,48.4,34.9,98,81,41,29.26,28.85,13,2,14,0.70
2013-11-2,63.9,49.5,36.9,43.8,36.1,27.0,85,61,39,29.29,29.09,8,2,12,0.00
2013-11-3,42.4,36.7,29.3,27.4,16.5,8.5,55,44,37,29.91,29.29,10,3,14,0.00
2013-11-4,39.9,29.1,21.7,15.8,10.5,6.3,60,46,35,30.18,29.91,6,1,6,0.00
2013-11-5,44.6,29.8,19.4,23.0,16.5,9.9,72,59,41,30.18,29.97,8,1,9,0.00
2013-11-6,53.2,39.5,25.7,37.3,29.0,19.1,78,66,52,29.97,29.44,7,1,8,0.00
2013-11-7,54.3,46.2,37.0,51.3,37.1,18.2,90,72,47,29.44,29.17,8,1,10,0.08
2013-11-8,43.3,36.5,27.3,24.5,18.0,14.4,69,47,39,29.50,29.26,12,2,17,0.00
2013-11-9,38.5,35.5,33.6,16.8,14.5,13.1,43,42,40,29.59,29.50,10,2,13,0.00
2013-11-11,42.4,38.0,32.9,25.5,23.0,20.4,69,55,45,29.50,29.32,8,1,8,0.00
2013-11-12,36.3,31.2,27.0,29.3,13.3,7.1,76,48,41,29.59,29.29,13,2,13,0.00
2013-11-13,31.5,24.2,16.9,10.4,6.6,3.4,57,47,40,29.71,29.56,9,1,13,0.00
2013-11-14,44.6,29.5,21.2,22.8,15.3,7.6,72,56,41,29.56,29.47,4,0,4,0.00
2013-11-15,45.7,30.9,22.1,29.5,20.7,15.7,80,67,43,29.68,29.56,3,0,4,0.00
2013-11-17,37.8,36.8,29.5,35.5,33.0,21.2,92,86,71,29.79,29.44,2,0,3,0.29
2013-11-18,55.6,45.6,37.6,52.2,36.3,23.7,98,73,42,29.44,29.00,12,2,12,0.62
2013-11-19,44.6,35.3,29.5,23.3,14.0,8.9,49,41,38,29.76,29.09,14,4,19,0.00
2013-11-20,37.4,29.0,20.3,10.9,7.6,3.8,52,40,31,30.15,29.76,12,2,15,0.00
2013-11-21,41.9,26.6,16.0,18.8,11.1,5.4,65,52,38,30.15,29.82,4,0,4,0.00
2013-11-22,37.6,31.7,25.3,29.9,22.9,12.6,88,70,57,29.82,29.29,0,0,0,0.00
2013-11-23,37.6,33.9,29.1,32.2,18.3,9.6,92,55,36,29.38,29.26,14,3,14,0.00
2013-11-24,29.3,19.7,17.1,10.1,-0.9,-2.9,44,40,37,29.59,29.26,21,5,25,0.00
2013-11-25,27.5,19.7,11.7,4.5,-0.4,-7.0,46,41,35,29.79,29.59,13,1,15,0.00
2013-11-26,33.6,28.0,23.2,24.6,16.8,4.5,81,63,43,29.79,29.65,2,0,3,0.04
2013-11-27,42.1,35.4,29.5,41.4,32.3,23.9,98,88,64,29.65,28.73,7,1,8,0.83
2013-11-28,35.4,24.9,12.9,26.8,9.6,0.1,77,52,36,29.88,28.85,18,3,18,0.00
2013-11-29,24.3,15.2,7.5,9.7,-0.1,-5.6,68,51,40,30.24,29.88,8,1,8,0.00
2013-11-30,25.7,16.3,3.4,11.1,1.0,-10.7,64,50,44,30.30,29.91,6,0,6,0.00